Time;durP1;ratioP1;P1;durP2;ratioP2;P2;SDS_P1;SDS_P2;PMS_P1;PMS_P2;Temp;Humidity;BMP_temperature;BMP_pressure;BME280_temperature;BME280_humidity;BME280_pressure;Samples;Min_cycle;Max_cycle;Signal;HPM_P1;HPM_P2
2021/09/20 00:00:48;;;;;;;20.90;12.70;;;5.20;99.90;;;;;;5052290;28;20475;-83
2021/09/20 00:03:14;;;;;;;15.13;10.35;;;5.20;99.90;;;;;;5063415;28;20024;-84
2021/09/20 00:05:40;;;;;;;14.80;10.02;;;5.20;99.90;;;;;;5052951;28;20478;-83
2021/09/20 00:08:05;;;;;;;14.48;11.60;;;5.20;99.90;;;;;;5046359;28;20025;-85
2021/09/20 00:10:31;;;;;;;18.52;12.35;;;5.20;99.90;;;;;;5061324;28;20043;-84
2021/09/20 00:12:57;;;;;;;15.93;11.50;;;5.20;99.90;;;;;;5068925;28;20025;-85
2021/09/20 00:15:23;;;;;;;15.43;10.35;;;5.20;99.90;;;;;;5052560;28;20021;-83
2021/09/20 00:17:50;;;;;;;18.05;11.20;;;5.10;99.90;;;;;;5051152;28;20381;-85
2021/09/20 00:20:16;;;;;;;15.43;8.75;;;5.20;99.90;;;;;;5063470;28;20466;-82
2021/09/20 00:22:42;;;;;;;14.10;11.75;;;5.10;99.90;;;;;;5053458;28;20051;-84
2021/09/20 00:25:10;;;;;;;13.73;8.70;;;5.10;99.90;;;;;;5047880;28;20025;-85
2021/09/20 00:27:36;;;;;;;;;;;5.10;99.90;;;;;;5054089;28;20112;-83
2021/09/20 00:30:05;;;;;;;16.60;10.63;;;5.00;99.90;;;;;;5037631;28;19905;-83
2021/09/20 00:32:31;;;;;;;14.90;9.68;;;5.00;99.90;;;;;;5053313;28;20040;-84
2021/09/20 00:34:57;;;;;;;16.30;11.18;;;5.10;99.90;;;;;;5052087;28;20025;-83
2021/09/20 00:37:23;;;;;;;14.65;10.25;;;5.10;99.90;;;;;;5051961;28;20032;-83
2021/09/20 00:39:48;;;;;;;15.20;11.27;;;5.10;99.90;;;;;;5048025;28;20017;-84
2021/09/20 00:42:14;;;;;;;15.25;10.20;;;5.10;99.90;;;;;;5044902;28;20601;-82
2021/09/20 00:44:40;;;;;;;16.63;9.65;;;5.10;99.90;;;;;;5051852;28;20437;-84
2021/09/20 00:47:06;;;;;;;13.98;9.35;;;5.20;99.90;;;;;;5042749;28;20013;-83
2021/09/20 00:49:32;;;;;;;17.77;11.82;;;5.20;99.90;;;;;;5051939;28;20032;-82
2021/09/20 00:51:58;;;;;;;14.07;10.00;;;5.20;99.90;;;;;;5050325;28;20045;-83
2021/09/20 00:54:24;;;;;;;14.93;11.57;;;5.20;99.90;;;;;;5045086;28;20032;-84
2021/09/20 00:56:50;;;;;;;13.00;9.85;;;5.20;99.90;;;;;;5051740;28;20044;-82
2021/09/20 00:59:17;;;;;;;12.65;10.25;;;5.20;99.90;;;;;;5051573;28;20082;-83
2021/09/20 01:01:44;;;;;;;13.77;9.40;;;5.20;99.90;;;;;;5034012;28;20535;-82
2021/09/20 01:04:10;;;;;;;13.15;7.82;;;5.20;99.90;;;;;;5055234;28;20064;-84
2021/09/20 01:06:36;;;;;;;12.77;8.23;;;5.20;99.90;;;;;;5048873;28;20021;-83
2021/09/20 01:09:02;;;;;;;14.73;10.82;;;5.10;99.90;;;;;;5055112;28;20478;-81
2021/09/20 01:11:29;;;;;;;12.27;9.20;;;5.10;99.90;;;;;;5055325;28;20053;-83
2021/09/20 01:13:54;;;;;;;13.77;8.88;;;5.20;99.90;;;;;;5053127;28;20106;-82
2021/09/20 01:16:20;;;;;;;11.57;8.20;;;5.20;99.90;;;;;;5055577;28;20486;-83
2021/09/20 01:18:46;;;;;;;15.13;9.90;;;5.20;99.90;;;;;;5054903;28;20032;-83
2021/09/20 01:21:14;;;;;;;15.43;10.27;;;5.20;99.90;;;;;;5058486;28;20017;-84
2021/09/20 01:23:40;;;;;;;;;;;5.20;99.90;;;;;;5060568;28;20021;-84
2021/09/20 01:26:05;;;;;;;12.13;8.57;;;5.30;99.90;;;;;;5065255;28;19950;-86
2021/09/20 01:28:32;;;;;;;12.80;8.43;;;5.20;99.90;;;;;;5055489;28;20017;-84
2021/09/20 01:30:57;;;;;;;12.63;8.48;;;5.20;99.90;;;;;;5055847;28;20032;-84
2021/09/20 01:33:23;;;;;;;10.95;8.45;;;5.20;99.90;;;;;;5055186;28;20037;-84
2021/09/20 01:35:49;;;;;;;14.10;9.93;;;5.30;99.90;;;;;;5054800;28;20097;-84
2021/09/20 01:38:15;;;;;;;14.15;10.00;;;5.20;99.90;;;;;;5055119;28;20559;-85
2021/09/20 01:40:41;;;;;;;12.48;9.75;;;5.20;99.90;;;;;;5054362;28;20045;-86
2021/09/20 01:43:07;;;;;;;13.65;9.75;;;5.20;99.90;;;;;;5054844;28;20029;-85
2021/09/20 01:45:33;;;;;;;11.18;8.32;;;5.20;99.90;;;;;;5054564;28;20017;-85
2021/09/20 01:47:58;;;;;;;11.77;7.72;;;5.20;99.90;;;;;;5054880;28;20017;-85
2021/09/20 01:50:24;;;;;;;12.75;8.88;;;5.20;99.90;;;;;;5040056;28;20413;-85
2021/09/20 01:52:51;;;;;;;10.95;7.80;;;5.20;99.90;;;;;;5063988;28;20017;-83
2021/09/20 01:55:17;;;;;;;11.23;8.30;;;5.20;99.90;;;;;;5054423;28;20036;-84
2021/09/20 01:57:43;;;;;;;8.40;7.18;;;5.20;99.90;;;;;;5054658;28;20420;-84
2021/09/20 02:00:11;;;;;;;12.82;7.93;;;5.20;99.90;;;;;;5054467;28;20082;-84
2021/09/20 02:02:38;;;;;;;11.23;7.10;;;5.20;99.90;;;;;;5054434;28;20028;-84
2021/09/20 02:05:06;;;;;;;12.90;8.98;;;5.30;99.90;;;;;;5036649;28;20025;-84
2021/09/20 02:07:31;;;;;;;;;;;5.20;99.90;;;;;;5039626;28;20107;-84
2021/09/20 02:09:57;;;;;;;10.98;7.38;;;5.20;99.90;;;;;;5054888;28;19944;-83
2021/09/20 02:12:23;;;;;;;11.25;8.48;;;5.20;99.90;;;;;;5036443;28;20539;-83
2021/09/20 02:14:49;;;;;;;8.25;5.80;;;5.20;99.90;;;;;;5053637;28;20167;-84
2021/09/20 02:17:15;;;;;;;12.88;7.55;;;5.30;99.90;;;;;;5054188;28;20045;-85
2021/09/20 02:19:41;;;;;;;10.05;7.78;;;5.30;99.90;;;;;;5054555;28;20029;-84
2021/09/20 02:22:07;;;;;;;8.27;6.75;;;5.20;99.90;;;;;;5054176;28;20021;-84
2021/09/20 02:24:32;;;;;;;8.52;5.35;;;5.20;99.90;;;;;;5061442;28;20112;-85
2021/09/20 02:26:58;;;;;;;10.43;6.13;;;5.20;99.90;;;;;;5063371;28;20052;-81
2021/09/20 02:29:24;;;;;;;8.55;7.03;;;5.20;99.90;;;;;;5055262;28;20029;-83
2021/09/20 02:31:50;;;;;;;10.00;7.25;;;5.20;99.90;;;;;;5057925;28;20044;-84
2021/09/20 02:34:17;;;;;;;8.48;6.20;;;5.20;99.90;;;;;;5058646;28;20040;-83
2021/09/20 02:36:44;;;;;;;10.07;6.55;;;5.20;99.90;;;;;;5056153;28;20018;-83
2021/09/20 02:39:10;;;;;;;12.70;7.55;;;5.20;99.90;;;;;;5054290;28;20430;-85
2021/09/20 02:41:36;;;;;;;11.93;6.28;;;5.20;99.90;;;;;;5053511;28;20152;-83
2021/09/20 02:44:03;;;;;;;8.10;5.47;;;5.20;99.90;;;;;;5054633;28;20035;-83
2021/09/20 02:46:29;;;;;;;7.43;5.33;;;5.20;99.90;;;;;;5053250;28;20045;-84
2021/09/20 02:48:54;;;;;;;11.10;7.55;;;5.20;99.90;;;;;;5035779;28;20056;-82
2021/09/20 02:51:20;;;;;;;7.03;4.88;;;5.20;99.90;;;;;;5053077;28;20052;-83
2021/09/20 02:53:46;;;;;;;8.73;6.03;;;5.20;99.90;;;;;;5065711;28;20032;-83
2021/09/20 02:56:12;;;;;;;8.57;6.20;;;5.20;99.90;;;;;;5066954;28;20096;-82
2021/09/20 02:58:39;;;;;;;8.27;5.85;;;5.30;99.90;;;;;;5068206;28;20587;-83
2021/09/20 03:01:04;;;;;;;8.45;5.55;;;5.30;99.90;;;;;;5054013;28;20028;-86
2021/09/20 03:03:30;;;;;;;8.20;5.78;;;5.20;99.90;;;;;;5034934;28;20389;-85
2021/09/20 03:05:56;;;;;;;7.82;5.25;;;5.20;99.90;;;;;;5052089;28;20090;-84
2021/09/20 03:08:22;;;;;;;7.97;4.95;;;5.20;99.90;;;;;;5067687;28;20047;-83
2021/09/20 03:10:48;;;;;;;10.70;5.63;;;5.20;99.90;;;;;;5049493;28;20021;-83
2021/09/20 03:13:14;;;;;;;7.53;5.30;;;5.20;99.90;;;;;;5055035;28;20033;-82
2021/09/20 03:15:39;;;;;;;6.70;4.18;;;5.20;99.90;;;;;;5054535;28;20037;-84
2021/09/20 03:18:05;;;;;;;9.30;4.88;;;5.30;99.90;;;;;;5054985;28;20536;-83
2021/09/20 03:20:31;;;;;;;6.60;3.88;;;5.20;99.90;;;;;;5054319;28;20029;-83
2021/09/20 03:22:57;;;;;;;6.35;4.65;;;5.20;99.90;;;;;;5055313;28;20021;-83
2021/09/20 03:25:23;;;;;;;8.93;6.25;;;5.20;99.90;;;;;;5056772;28;20036;-83
2021/09/20 03:27:49;;;;;;;7.53;5.45;;;5.20;99.90;;;;;;5053371;28;20025;-87
2021/09/20 03:30:16;;;;;;;7.80;5.72;;;5.30;99.90;;;;;;5052769;28;20028;-83
2021/09/20 03:32:42;;;;;;;6.43;5.40;;;5.30;99.90;;;;;;5051560;28;20028;-83
2021/09/20 03:35:14;;;;;;;8.75;5.18;;;5.30;99.90;;;;;;5043075;28;20037;-83
2021/09/20 03:37:44;;;;;;;5.95;4.40;;;5.20;99.90;;;;;;5050370;28;20364;-83
2021/09/20 03:40:13;;;;;;;7.60;5.30;;;5.20;99.90;;;;;;5046529;28;20490;-86
2021/09/20 03:42:40;;;;;;;7.50;5.10;;;5.30;99.90;;;;;;5052443;28;20387;-84
2021/09/20 03:45:07;;;;;;;8.27;5.43;;;5.20;99.90;;;;;;5047352;28;20100;-84
2021/09/20 03:47:33;;;;;;;6.30;5.32;;;5.20;99.90;;;;;;5047219;28;20040;-82
2021/09/20 03:49:58;;;;;;;5.72;4.40;;;5.20;99.90;;;;;;5052262;28;20037;-84
2021/09/20 03:52:24;;;;;;;7.68;4.13;;;5.20;99.90;;;;;;5051611;28;20033;-82
2021/09/20 03:54:50;;;;;;;7.07;4.32;;;5.20;99.90;;;;;;5051840;28;20028;-82
2021/09/20 03:57:16;;;;;;;6.85;5.03;;;5.20;99.90;;;;;;5051808;28;20025;-81
2021/09/20 03:59:42;;;;;;;7.28;5.05;;;5.20;99.90;;;;;;5052246;28;20032;-80
2021/09/20 04:02:07;;;;;;;6.65;4.20;;;5.20;99.90;;;;;;5047880;28;20390;-81
2021/09/20 04:04:33;;;;;;;6.25;4.10;;;5.20;99.90;;;;;;5049888;28;20018;-80
2021/09/20 04:07:03;;;;;;;5.90;3.88;;;5.20;99.90;;;;;;5050277;28;20043;-83
2021/09/20 04:09:29;;;;;;;6.25;4.55;;;5.20;99.90;;;;;;5041902;28;20025;-84
2021/09/20 04:11:55;;;;;;;6.97;5.13;;;5.20;99.90;;;;;;5051903;28;20390;-85
2021/09/20 04:14:21;;;;;;;6.22;3.55;;;5.20;99.90;;;;;;5051938;28;20032;-82
2021/09/20 04:16:47;;;;;;;5.45;3.72;;;5.20;99.90;;;;;;5052063;28;20028;-83
2021/09/20 04:19:13;;;;;;;7.57;5.32;;;5.20;99.90;;;;;;5051769;28;20104;-84
2021/09/20 04:21:39;;;;;;;5.15;4.07;;;5.20;99.90;;;;;;5052395;28;20119;-83
2021/09/20 04:24:04;;;;;;;6.13;4.07;;;5.20;99.90;;;;;;5051337;28;20021;-85
2021/09/20 04:26:30;;;;;;;5.72;4.50;;;5.20;99.90;;;;;;5053410;28;20327;-81
2021/09/20 04:28:56;;;;;;;6.97;5.10;;;5.20;99.90;;;;;;5054727;28;20016;-83
2021/09/20 04:31:22;;;;;;;8.35;5.45;;;5.20;99.90;;;;;;5051022;28;20108;-82
2021/09/20 04:33:48;;;;;;;9.43;5.57;;;5.20;99.90;;;;;;5052427;28;20453;-83
2021/09/20 04:36:14;;;;;;;5.18;3.58;;;5.20;99.90;;;;;;5052485;28;20092;-82
2021/09/20 04:38:39;;;;;;;6.55;4.78;;;5.20;99.90;;;;;;5055446;28;20028;-85
2021/09/20 04:41:08;;;;;;;5.53;4.88;;;5.20;99.90;;;;;;5055653;28;20023;-83
2021/09/20 04:43:34;;;;;;;7.53;4.55;;;5.20;99.90;;;;;;5055840;28;20029;-82
2021/09/20 04:46:00;;;;;;;6.47;4.22;;;5.30;99.90;;;;;;5055242;28;20095;-83
2021/09/20 04:48:25;;;;;;;5.88;4.45;;;5.30;99.90;;;;;;5056208;28;20390;-83
2021/09/20 04:50:52;;;;;;;6.68;4.97;;;5.30;99.90;;;;;;5054065;28;20094;-84
2021/09/20 04:53:18;;;;;;;7.60;6.47;;;5.30;99.90;;;;;;5056037;28;20037;-82
2021/09/20 04:55:45;;;;;;;9.63;5.85;;;5.30;99.90;;;;;;5055792;28;20036;-83
2021/09/20 04:58:12;;;;;;;6.90;5.37;;;5.30;99.90;;;;;;5055001;28;20107;-84
2021/09/20 05:00:39;;;;;;;7.25;5.10;;;5.30;99.90;;;;;;5037483;28;20024;-85
2021/09/20 05:03:05;;;;;;;8.15;5.68;;;5.30;99.90;;;;;;5055371;28;20025;-85
2021/09/20 05:05:31;;;;;;;6.93;5.38;;;5.30;99.90;;;;;;5054957;28;20013;-85
2021/09/20 05:07:57;;;;;;;8.13;6.32;;;5.30;99.90;;;;;;5055513;28;20505;-84
2021/09/20 05:10:23;;;;;;;6.90;5.45;;;5.30;99.90;;;;;;5055020;28;20009;-81
2021/09/20 05:12:49;;;;;;;9.27;5.60;;;5.40;99.90;;;;;;5055628;28;20151;-82
2021/09/20 05:15:16;;;;;;;7.15;5.20;;;5.30;99.90;;;;;;5054836;28;20116;-82
2021/09/20 05:17:43;;;;;;;6.00;4.20;;;5.40;99.90;;;;;;5054951;28;20431;-83
2021/09/20 05:20:11;;;;;;;8.95;5.57;;;5.40;99.90;;;;;;5054607;28;20506;-82
2021/09/20 05:22:37;;;;;;;7.80;4.90;;;5.40;99.90;;;;;;5061429;28;20103;-83
2021/09/20 05:25:04;;;;;;;7.85;5.63;;;5.40;99.90;;;;;;5062150;28;20028;-83
2021/09/20 05:27:30;;;;;;;7.57;5.00;;;5.40;99.90;;;;;;5054409;28;20024;-84
2021/09/20 05:29:57;;;;;;;7.32;5.93;;;5.40;99.90;;;;;;5055521;28;20041;-82
2021/09/20 05:32:23;;;;;;;6.93;5.47;;;5.30;99.90;;;;;;5054211;28;20057;-84
2021/09/20 05:34:49;;;;;;;7.40;6.43;;;5.40;99.90;;;;;;5054799;28;20060;-85
2021/09/20 05:37:15;;;;;;;8.77;6.75;;;5.40;99.90;;;;;;5054739;28;20028;-83
2021/09/20 05:39:41;;;;;;;7.68;5.45;;;5.40;99.90;;;;;;5054587;28;20025;-83
2021/09/20 05:42:07;;;;;;;6.78;5.32;;;5.40;99.90;;;;;;5054439;28;20433;-83
2021/09/20 05:44:33;;;;;;;12.60;7.70;;;5.50;99.90;;;;;;5054676;28;20024;-84
2021/09/20 05:46:58;;;;;;;15.95;6.53;;;5.40;99.90;;;;;;5054906;28;20509;-82
2021/09/20 05:49:24;;;;;;;10.57;8.13;;;5.50;99.90;;;;;;5053233;28;20029;-85
2021/09/20 05:51:51;;;;;;;12.38;7.63;;;5.50;99.90;;;;;;5054746;28;20147;-84
2021/09/20 05:54:16;;;;;;;10.38;7.97;;;5.50;99.90;;;;;;5055490;28;20044;-87
2021/09/20 05:56:42;;;;;;;8.55;6.20;;;5.50;99.90;;;;;;5054512;28;20051;-87
2021/09/20 05:59:08;;;;;;;6.88;5.20;;;5.50;99.90;;;;;;5037680;28;20056;-85
2021/09/20 06:01:34;;;;;;;14.00;9.52;;;5.50;99.90;;;;;;5072489;28;20075;-84
2021/09/20 06:04:00;;;;;;;7.82;5.10;;;5.50;99.90;;;;;;5038401;28;20466;-85
2021/09/20 06:06:25;;;;;;;9.68;6.40;;;5.60;99.90;;;;;;5054583;28;20024;-87
2021/09/20 06:08:51;;;;;;;8.43;6.35;;;5.50;99.90;;;;;;5054026;28;20017;-85
2021/09/20 06:11:18;;;;;;;9.35;6.68;;;5.60;99.90;;;;;;5054236;28;20060;-85
2021/09/20 06:13:44;;;;;;;9.63;6.43;;;5.60;99.90;;;;;;5053716;28;20142;-83
2021/09/20 06:16:10;;;;;;;9.68;6.13;;;5.60;99.90;;;;;;5050287;28;20212;-83
2021/09/20 06:18:36;;;;;;;6.13;4.78;;;5.60;99.90;;;;;;5036891;28;20100;-85
2021/09/20 06:21:03;;;;;;;10.30;4.70;;;5.70;99.90;;;;;;5053349;28;20096;-83
2021/09/20 06:23:29;;;;;;;7.72;4.32;;;5.60;99.90;;;;;;5053608;28;20028;-84
2021/09/20 06:25:57;;;;;;;9.05;7.15;;;5.60;99.90;;;;;;5053620;28;20037;-85
2021/09/20 06:28:24;;;;;;;7.50;5.68;;;5.60;99.90;;;;;;5052349;28;20029;-83
2021/09/20 06:30:50;;;;;;;7.70;5.72;;;5.60;99.90;;;;;;5035504;28;20379;-84
2021/09/20 06:33:16;;;;;;;7.32;5.30;;;5.60;99.90;;;;;;5061393;28;20031;-84
2021/09/20 06:35:43;;;;;;;8.45;6.30;;;5.70;99.90;;;;;;5051006;28;20470;-81
2021/09/20 06:38:09;;;;;;;8.80;4.95;;;5.70;99.90;;;;;;5052473;28;20100;-82
2021/09/20 06:40:35;;;;;;;8.13;6.28;;;5.60;99.90;;;;;;5048378;28;20025;-87
2021/09/20 06:43:00;;;;;;;5.75;4.75;;;5.60;99.90;;;;;;5053099;28;20035;-83
2021/09/20 06:45:26;;;;;;;9.85;7.40;;;5.60;99.90;;;;;;5053726;28;20474;-88
2021/09/20 06:47:52;;;;;;;8.18;5.75;;;5.60;99.90;;;;;;5053163;28;20761;-83
2021/09/20 06:50:18;;;;;;;7.45;5.20;;;5.70;99.90;;;;;;5053282;28;20136;-84
2021/09/20 06:52:44;;;;;;;10.48;7.35;;;5.70;99.90;;;;;;5053300;28;20456;-84
2021/09/20 06:55:11;;;;;;;11.43;7.05;;;5.70;99.90;;;;;;5036282;28;20375;-84
2021/09/20 06:57:37;;;;;;;7.97;5.75;;;5.70;99.90;;;;;;5053571;28;20029;-84
2021/09/20 07:00:08;;;;;;;6.45;4.57;;;5.80;99.90;;;;;;5052724;28;20028;-85
2021/09/20 07:02:34;;;;;;;5.68;4.90;;;5.80;99.90;;;;;;5053361;28;20024;-83
2021/09/20 07:04:59;;;;;;;6.03;4.70;;;5.70;99.90;;;;;;5035271;28;20033;-84
2021/09/20 07:07:25;;;;;;;10.98;7.30;;;5.80;99.90;;;;;;5052884;28;20414;-85
2021/09/20 07:09:51;;;;;;;8.93;5.85;;;5.80;99.90;;;;;;5053727;28;20025;-85
2021/09/20 07:12:17;;;;;;;7.60;6.00;;;5.80;99.90;;;;;;5052805;28;20386;-84
2021/09/20 07:14:43;;;;;;;7.93;6.03;;;5.90;99.90;;;;;;5052708;28;20037;-85
2021/09/20 07:17:09;;;;;;;6.65;5.05;;;5.90;99.90;;;;;;5034501;28;20035;-84
2021/09/20 07:19:35;;;;;;;11.35;6.25;;;6.00;99.90;;;;;;5052657;28;20040;-84
2021/09/20 07:22:01;;;;;;;8.88;5.82;;;5.90;99.90;;;;;;5052250;28;20025;-84
2021/09/20 07:24:27;;;;;;;8.85;6.88;;;6.00;99.90;;;;;;5052407;28;20083;-84
2021/09/20 07:26:53;;;;;;;9.18;6.97;;;6.00;99.90;;;;;;5052755;28;20074;-84
2021/09/20 07:29:19;;;;;;;10.65;6.32;;;6.00;99.90;;;;;;5052395;28;20013;-84
2021/09/20 07:31:45;;;;;;;18.30;6.80;;;6.00;99.90;;;;;;5035540;28;20067;-82
2021/09/20 07:34:11;;;;;;;7.90;5.53;;;6.10;99.90;;;;;;5052962;28;20060;-84
2021/09/20 07:36:37;;;;;;;8.10;6.10;;;6.20;99.90;;;;;;5052902;28;20017;-83
2021/09/20 07:39:03;;;;;;;7.82;5.75;;;6.20;99.90;;;;;;5052438;28;20094;-84
2021/09/20 07:41:29;;;;;;;9.47;5.73;;;6.20;99.90;;;;;;5052441;28;20061;-83
2021/09/20 07:43:55;;;;;;;9.75;5.80;;;6.20;99.90;;;;;;5034522;28;20759;-83
2021/09/20 07:46:22;;;;;;;6.35;5.25;;;6.20;99.90;;;;;;5066622;28;20027;-83
2021/09/20 07:48:49;;;;;;;9.70;6.75;;;6.30;99.90;;;;;;5034609;28;20017;-84
2021/09/20 07:51:15;;;;;;;17.20;7.40;;;6.20;99.90;;;;;;5052676;28;20067;-83
2021/09/20 07:53:41;;;;;;;5.88;5.00;;;6.30;99.90;;;;;;5052984;28;20048;-83
2021/09/20 07:56:07;;;;;;;5.10;4.00;;;6.20;99.90;;;;;;5052704;28;20029;-82
2021/09/20 07:58:33;;;;;;;8.85;5.70;;;6.20;99.90;;;;;;5059003;28;20032;-85
2021/09/20 08:00:59;;;;;;;7.22;4.68;;;6.20;99.90;;;;;;5054399;28;20024;-83
2021/09/20 08:03:26;;;;;;;6.93;5.35;;;6.20;99.90;;;;;;5052427;28;20104;-82
2021/09/20 08:05:52;;;;;;;17.80;7.53;;;6.30;99.90;;;;;;5052936;28;20024;-83
2021/09/20 08:08:19;;;;;;;7.53;5.18;;;6.30;99.90;;;;;;5053426;28;20037;-83
2021/09/20 08:10:44;;;;;;;6.80;4.97;;;6.30;99.90;;;;;;5039924;28;20151;-84
2021/09/20 08:13:10;;;;;;;9.77;5.63;;;6.30;99.90;;;;;;5038095;28;20517;-82
2021/09/20 08:15:37;;;;;;;10.15;5.38;;;6.30;99.90;;;;;;5057508;28;20520;-82
2021/09/20 08:18:04;;;;;;;5.13;4.65;;;6.40;99.90;;;;;;5056466;28;20039;-82
2021/09/20 08:20:30;;;;;;;7.35;5.22;;;6.30;99.90;;;;;;5058158;28;20029;-85
2021/09/20 08:22:56;;;;;;;7.13;5.47;;;6.30;99.90;;;;;;5058025;28;20028;-84
2021/09/20 08:25:23;;;;;;;5.28;4.05;;;6.40;99.90;;;;;;5061822;28;20024;-84
2021/09/20 08:27:50;;;;;;;4.40;3.08;;;6.40;99.90;;;;;;5069485;28;20048;-84
2021/09/20 08:30:17;;;;;;;4.95;3.83;;;6.40;99.90;;;;;;5056211;28;20029;-83
2021/09/20 08:32:44;;;;;;;5.38;4.85;;;6.40;99.90;;;;;;5055832;28;20024;-82
2021/09/20 08:35:10;;;;;;;6.85;5.35;;;6.40;99.90;;;;;;5055865;28;20387;-83
2021/09/20 08:37:36;;;;;;;6.55;4.70;;;6.30;99.90;;;;;;5056211;28;20017;-83
2021/09/20 08:40:04;;;;;;;5.40;3.92;;;6.40;99.90;;;;;;5056400;28;20025;-82
2021/09/20 08:42:30;;;;;;;4.70;3.88;;;6.40;99.90;;;;;;5055850;28;20032;-84
2021/09/20 08:44:56;;;;;;;6.35;4.30;;;6.40;99.90;;;;;;5041072;28;20021;-82
2021/09/20 08:47:22;;;;;;;6.80;4.13;;;6.40;99.90;;;;;;5059940;28;20033;-85
2021/09/20 08:49:50;;;;;;;9.02;5.93;;;6.40;99.90;;;;;;5057379;28;20482;-83
2021/09/20 08:52:16;;;;;;;7.38;4.93;;;6.40;99.90;;;;;;5057090;28;20499;-82
2021/09/20 08:54:43;;;;;;;6.18;4.85;;;6.50;99.90;;;;;;5057520;28;20108;-82
2021/09/20 08:57:09;;;;;;;7.13;4.35;;;6.50;99.90;;;;;;5055993;28;20043;-84
2021/09/20 08:59:35;;;;;;;5.97;3.95;;;6.60;99.90;;;;;;5055658;28;20029;-82
2021/09/20 09:02:05;;;;;;;3.83;3.17;;;6.50;99.90;;;;;;5038639;28;20025;-81
2021/09/20 09:04:36;;;;;;;5.30;3.60;;;6.40;99.90;;;;;;5056444;28;20501;-84
2021/09/20 09:07:05;;;;;;;13.27;7.03;;;6.40;99.90;;;;;;5056000;28;20032;-82
2021/09/20 09:09:47;;;;;;;7.10;3.85;;;6.30;99.90;;;;;;5038290;28;20501;-83
2021/09/20 09:12:16;;;;;;;5.85;3.97;;;6.40;99.90;;;;;;5055811;28;20017;-83
2021/09/20 09:15:03;;;;;;;9.48;4.85;;;6.30;99.90;;;;;;5055704;28;20072;-82
2021/09/20 09:17:39;;;;;;;9.23;5.68;;;6.40;99.90;;;;;;5069518;28;20363;-84
2021/09/20 09:20:10;;;;;;;5.50;4.15;;;6.40;99.90;;;;;;5056055;28;20036;-83
2021/09/20 09:22:48;;;;;;;5.00;3.65;;;6.40;99.90;;;;;;5055222;28;20048;-83
2021/09/20 09:25:33;;;;;;;;;;;6.40;99.90;;;;;;5037807;28;20406;-83
2021/09/20 09:28:05;;;;;;;7.97;4.10;;;6.40;99.90;;;;;;5054761;28;19905;-84
2021/09/20 09:30:42;;;;;;;6.75;3.88;;;6.40;99.90;;;;;;5055412;28;20436;-86
2021/09/20 09:33:08;;;;;;;;;;;6.40;99.90;;;;;;5037824;28;20031;-84
2021/09/20 09:35:38;;;;;;;6.45;5.13;;;6.40;99.90;;;;;;5055266;28;20015;-83
2021/09/20 09:38:08;;;;;;;11.02;5.90;;;6.40;99.90;;;;;;5037505;28;20504;-82
2021/09/20 09:40:46;;;;;;;6.45;4.70;;;6.40;99.90;;;;;;5045468;28;20039;-83
2021/09/20 09:43:12;;;;;;;7.88;6.22;;;6.40;99.90;;;;;;5042507;28;20029;-84
2021/09/20 09:45:38;;;;;;;7.72;5.80;;;6.30;99.90;;;;;;5037385;28;20021;-84
2021/09/20 09:48:11;;;;;;;8.57;5.40;;;6.40;99.90;;;;;;5054020;28;20060;-83
2021/09/20 09:51:07;;;;;;;7.72;4.63;;;6.50;99.90;;;;;;5036339;28;20098;-85
2021/09/20 09:53:39;;;;;;;14.55;8.45;;;6.50;99.90;;;;;;5051212;28;20049;-83
2021/09/20 09:56:13;;;;;;;6.72;5.10;;;6.50;99.90;;;;;;5054961;28;20391;-82
2021/09/20 09:58:59;;;;;;;13.05;5.75;;;6.50;99.90;;;;;;5058021;28;20029;-85
2021/09/20 10:01:32;;;;;;;8.07;6.13;;;6.40;99.90;;;;;;5057965;28;20063;-83
2021/09/20 10:04:09;;;;;;;7.03;5.65;;;6.50;99.90;;;;;;5056333;28;20021;-84
2021/09/20 10:06:41;;;;;;;7.07;5.03;;;6.50;99.90;;;;;;5039565;28;20378;-84
2021/09/20 10:09:17;;;;;;;6.97;4.72;;;6.50;99.90;;;;;;5024312;28;20021;-83
2021/09/20 10:11:47;;;;;;;7.75;5.65;;;6.50;99.90;;;;;;5055120;28;20083;-83
2021/09/20 10:14:14;;;;;;;6.80;4.82;;;6.50;99.90;;;;;;5055020;28;20119;-84
2021/09/20 10:16:40;;;;;;;5.85;4.30;;;6.60;99.90;;;;;;5055519;28;20482;-83
2021/09/20 10:19:07;;;;;;;6.13;4.43;;;6.60;99.90;;;;;;5055366;28;20506;-84
2021/09/20 10:21:33;;;;;;;6.22;5.13;;;6.60;99.90;;;;;;5056431;28;20116;-86
2021/09/20 10:24:00;;;;;;;9.90;6.40;;;6.60;99.90;;;;;;5058576;28;20028;-83
2021/09/20 10:26:27;;;;;;;6.43;5.00;;;6.60;99.90;;;;;;5042677;28;20025;-84
2021/09/20 10:28:55;;;;;;;5.40;4.27;;;6.60;99.90;;;;;;5054533;28;20145;-85
2021/09/20 10:31:22;;;;;;;6.45;5.05;;;6.60;99.90;;;;;;5062081;28;20062;-84
2021/09/20 10:33:48;;;;;;;10.57;6.85;;;6.60;99.90;;;;;;5043292;28;20101;-83
2021/09/20 10:36:14;;;;;;;7.85;6.00;;;6.60;99.90;;;;;;5060008;28;20551;-84
2021/09/20 10:38:54;;;;;;;10.18;7.20;;;6.70;99.90;;;;;;5047418;28;20113;-83
2021/09/20 10:41:22;;;;;;;5.95;5.25;;;6.70;99.90;;;;;;5055605;28;20032;-83
2021/09/20 10:44:05;;;;;;;10.68;7.82;;;6.70;99.90;;;;;;5057956;28;20032;-84
2021/09/20 10:46:33;;;;;;;8.77;5.88;;;6.70;99.90;;;;;;5055991;28;20433;-84
2021/09/20 10:49:04;;;;;;;6.47;4.97;;;6.70;99.90;;;;;;5037605;28;20430;-83
2021/09/20 10:51:35;;;;;;;10.32;6.97;;;6.70;99.90;;;;;;5055716;28;20093;-83
2021/09/20 10:54:14;;;;;;;9.57;7.90;;;6.70;99.90;;;;;;5036834;28;20039;-85
2021/09/20 10:56:42;;;;;;;8.63;6.30;;;6.80;99.90;;;;;;5054180;28;20047;-85
2021/09/20 10:59:10;;;;;;;8.10;6.78;;;6.90;99.90;;;;;;5056388;28;20028;-83
2021/09/20 11:01:40;;;;;;;7.43;6.13;;;6.90;99.90;;;;;;5053790;28;20035;-83
2021/09/20 11:04:21;;;;;;;5.68;4.70;;;6.90;99.90;;;;;;5053551;28;20087;-83
2021/09/20 11:07:18;;;;;;;3.33;3.03;;;6.90;99.90;;;;;;5035933;28;20029;-84
2021/09/20 11:09:46;;;;;;;8.52;6.07;;;6.90;99.90;;;;;;5053869;28;20033;-84
2021/09/20 11:12:25;;;;;;;11.23;6.30;;;6.80;99.90;;;;;;5054523;28;20047;-85
2021/09/20 11:15:02;;;;;;;11.75;7.68;;;6.90;99.90;;;;;;5055590;28;20037;-83
2021/09/20 11:17:34;;;;;;;18.80;9.82;;;6.90;99.90;;;;;;5035826;28;20368;-84
2021/09/20 11:20:04;;;;;;;9.55;7.53;;;6.90;99.90;;;;;;5053710;28;20036;-83
2021/09/20 11:22:32;;;;;;;8.40;5.55;;;6.90;99.90;;;;;;5035823;28;20025;-84
2021/09/20 11:25:06;;;;;;;8.05;5.50;;;6.90;99.90;;;;;;5054746;28;20426;-84
2021/09/20 11:27:41;;;;;;;10.88;7.60;;;6.90;99.90;;;;;;5035613;28;20025;-82
2021/09/20 11:30:12;;;;;;;6.82;5.40;;;6.80;99.90;;;;;;5054058;28;20017;-83
2021/09/20 11:33:00;;;;;;;7.13;4.63;;;6.90;99.90;;;;;;5064684;28;20020;-83
2021/09/20 11:35:32;;;;;;;7.22;4.70;;;6.90;99.90;;;;;;5042887;28;20033;-82
2021/09/20 11:38:11;;;;;;;6.95;6.13;;;6.90;99.90;;;;;;5035668;28;20139;-83
2021/09/20 11:40:37;;;;;;;8.68;5.13;;;6.90;99.90;;;;;;5053464;28;20071;-84
2021/09/20 11:43:05;;;;;;;6.88;4.85;;;6.90;99.90;;;;;;5053557;28;20029;-84
2021/09/20 11:45:36;;;;;;;8.27;5.47;;;6.90;99.90;;;;;;5052977;28;20021;-84
2021/09/20 11:48:20;;;;;;;8.38;5.60;;;6.90;99.90;;;;;;5052826;28;20112;-84
2021/09/20 11:50:46;;;;;;;6.53;5.57;;;7.00;99.90;;;;;;5035441;28;20049;-85
2021/09/20 11:53:20;;;;;;;11.23;8.02;;;7.00;99.90;;;;;;5059473;28;20033;-86
2021/09/20 11:55:49;;;;;;;9.52;4.88;;;7.00;99.90;;;;;;5046265;28;20052;-81
2021/09/20 11:58:17;;;;;;;5.88;4.80;;;7.00;99.90;;;;;;5054771;28;20087;-82
2021/09/20 12:00:46;;;;;;;8.63;7.05;;;6.90;99.90;;;;;;5055252;28;20082;-84
2021/09/20 12:03:18;;;;;;;9.45;6.72;;;7.00;99.90;;;;;;5053860;28;20086;-81
2021/09/20 12:05:46;;;;;;;6.97;6.28;;;7.00;99.90;;;;;;5035672;28;20025;-83
2021/09/20 12:08:17;;;;;;;8.90;7.60;;;7.00;99.90;;;;;;5053664;28;20075;-83
2021/09/20 12:10:53;;;;;;;13.70;8.88;;;7.00;99.90;;;;;;5053535;28;20024;-84
2021/09/20 12:13:35;;;;;;;10.63;7.22;;;7.00;99.90;;;;;;5052783;28;20104;-83
2021/09/20 12:16:10;;;;;;;5.05;4.38;;;7.00;99.90;;;;;;5022551;28;20029;-84
2021/09/20 12:18:36;;;;;;;19.95;10.80;;;7.10;99.90;;;;;;5052698;28;20025;-82
2021/09/20 12:21:05;;;;;;;6.50;5.07;;;7.00;99.90;;;;;;5053058;28;20107;-82
2021/09/20 12:23:43;;;;;;;6.93;5.00;;;7.10;99.90;;;;;;5056152;28;20036;-83
2021/09/20 12:26:21;;;;;;;11.13;7.93;;;7.00;99.90;;;;;;5032644;28;20115;-85
2021/09/20 12:28:54;;;;;;;10.25;7.25;;;7.00;99.90;;;;;;5059541;28;20035;-82
2021/09/20 12:31:36;;;;;;;7.45;6.32;;;7.00;99.90;;;;;;5035487;28;20406;-82
2021/09/20 12:34:15;;;;;;;6.57;5.88;;;7.10;99.90;;;;;;5055097;28;20037;-83
2021/09/20 12:36:52;;;;;;;5.22;3.90;;;7.10;99.90;;;;;;5053220;28;20105;-83
2021/09/20 12:39:27;;;;;;;7.60;4.00;;;7.10;99.90;;;;;;5054340;28;20017;-84
2021/09/20 12:42:03;;;;;;;5.03;3.42;;;7.10;99.90;;;;;;5053335;28;20017;-83
2021/09/20 12:44:49;;;;;;;6.70;5.13;;;7.10;99.90;;;;;;5052335;28;20478;-84
2021/09/20 12:47:23;;;;;;;4.93;3.92;;;7.10;99.90;;;;;;5052140;28;20021;-84
2021/09/20 12:50:06;;;;;;;4.28;3.50;;;7.10;99.90;;;;;;5052010;28;20482;-82
2021/09/20 12:52:39;;;;;;;8.30;4.25;;;7.20;99.90;;;;;;5035241;28;20025;-84
2021/09/20 12:55:06;;;;;;;4.85;3.30;;;7.20;99.90;;;;;;5052211;28;20040;-82
2021/09/20 12:57:32;;;;;;;8.02;3.97;;;7.20;99.90;;;;;;5052284;28;20017;-82
2021/09/20 13:00:11;;;;;;;7.45;4.35;;;7.20;99.90;;;;;;5056169;28;20111;-83